Terminal Aerodrome Forecast
Issued by NWS Wilmington, OH

Home | Current Version | Previous Version | Text Only | Print | Product List | Glossary On
Versions: 1 2 3 4 5 6 7 8 9 10 11 12 13 14 15 16 17 18 19 20 21
000
FTUS41 KILN 280046 AAA
TAFDAY
TAF AMD
KDAY 280046Z 2801/2824 11004KT 5SM -SHRA OVC060
      TEMPO 2801/2803 2SM -TSRA BR OVC025CB
     FM280500 10009KT 3SM -SHRA BR OVC015
     FM280900 35006KT 3SM -SHRA BR OVC008
     FM281200 35007KT P6SM OVC008
     FM282000 36010KT P6SM OVC015=

USA.gov is the U.S. government's official web portal to all federal, state and local government web resources and services.